createdAt,value
2018-08-05T00:00:02.599Z,1014.74
2018-08-05T00:01:02.593Z,1014.78
2018-08-05T00:02:02.546Z,1014.78
2018-08-05T00:03:25.793Z,1014.79
2018-08-05T00:04:02.570Z,1014.80
2018-08-05T00:05:02.589Z,1014.81
2018-08-05T00:06:02.846Z,1014.81
2018-08-05T00:07:02.027Z,1014.82
2018-08-05T00:08:02.593Z,1014.82
2018-08-05T00:09:02.605Z,1014.80
2018-08-05T00:10:02.609Z,1014.80
2018-08-05T00:11:22.754Z,1014.84
2018-08-05T00:12:02.610Z,1014.83
2018-08-05T00:13:02.585Z,1014.79
2018-08-05T00:14:02.990Z,1014.80
2018-08-05T00:15:02.292Z,1014.84
2018-08-05T00:16:01.954Z,1014.84
2018-08-05T00:17:02.605Z,1014.80
2018-08-05T00:18:02.258Z,1014.86
2018-08-05T00:19:02.755Z,1014.83
2018-08-05T00:20:02.753Z,1014.83
2018-08-05T00:21:02.308Z,1014.85
2018-08-05T00:23:09.263Z,1014.90
2018-08-05T00:24:02.825Z,1014.91
2018-08-05T00:25:02.806Z,1014.88
2018-08-05T00:26:02.749Z,1014.95
2018-08-05T00:27:17.306Z,1014.96
2018-08-05T00:28:02.750Z,1014.98
2018-08-05T00:29:02.746Z,1014.98
2018-08-05T00:30:02.748Z,1015.02
2018-08-05T00:31:04.749Z,1014.98
2018-08-05T00:32:02.523Z,1015.03
2018-08-05T00:33:02.801Z,1014.98
2018-08-05T00:34:02.766Z,1014.97
2018-08-05T00:35:03.762Z,1014.99
2018-08-05T00:36:02.751Z,1014.97
2018-08-05T00:37:03.796Z,1014.97
2018-08-05T00:38:02.752Z,1014.99
2018-08-05T00:39:02.751Z,1015.00
2018-08-05T00:40:02.754Z,1014.96
2018-08-05T00:41:02.761Z,1014.96
2018-08-05T00:42:02.924Z,1014.92
2018-08-05T00:43:02.476Z,1014.94
2018-08-05T00:44:02.753Z,1014.95
2018-08-05T00:45:02.804Z,1014.94
2018-08-05T00:46:02.753Z,1014.94
2018-08-05T00:47:02.548Z,1014.93
2018-08-05T00:48:02.756Z,1014.90
2018-08-05T00:49:02.788Z,1014.93
2018-08-05T00:50:02.758Z,1014.92
2018-08-05T00:51:02.757Z,1014.90
2018-08-05T00:52:02.508Z,1014.87
2018-08-05T00:53:02.805Z,1014.91
2018-08-05T00:54:02.759Z,1014.94
2018-08-05T00:55:02.766Z,1014.94
2018-08-05T00:56:02.759Z,1014.89
2018-08-05T00:57:02.807Z,1014.91
2018-08-05T00:58:02.816Z,1014.89
2018-08-05T00:59:02.770Z,1014.93
2018-08-05T01:00:02.778Z,1014.94
2018-08-05T01:01:04.336Z,1014.92
2018-08-05T01:02:02.790Z,1014.98
2018-08-05T01:03:02.821Z,1014.95
2018-08-05T01:04:02.763Z,1014.99
2018-08-05T01:05:02.762Z,1014.97
2018-08-05T01:06:16.966Z,1014.95
2018-08-05T01:07:02.814Z,1014.98
2018-08-05T01:08:02.487Z,1014.96
2018-08-05T01:09:22.771Z,1014.96
2018-08-05T01:10:02.791Z,1014.98
2018-08-05T01:11:02.768Z,1014.93
2018-08-05T01:12:02.547Z,1014.95
2018-08-05T01:13:02.269Z,1015.03
2018-08-05T01:14:02.786Z,1015.06
2018-08-05T01:15:02.766Z,1015.06
2018-08-05T01:16:02.047Z,1015.09
2018-08-05T01:17:03.339Z,1015.08
2018-08-05T01:18:02.782Z,1015.10
2018-08-05T01:19:03.842Z,1015.12
2018-08-05T01:20:02.796Z,1015.12
2018-08-05T01:21:02.527Z,1015.14
2018-08-05T01:22:02.355Z,1015.16
2018-08-05T01:24:35.141Z,1015.21
2018-08-05T01:25:35.560Z,1015.16
2018-08-05T01:27:29.263Z,1015.18
2018-08-05T01:28:29.279Z,1015.19
2018-08-05T01:30:23.778Z,1015.19
2018-08-05T01:31:25.935Z,1015.24
2018-08-05T01:33:17.260Z,1015.23
2018-08-05T01:34:18.125Z,1015.20
2018-08-05T01:36:12.301Z,1015.22
2018-08-05T01:37:11.728Z,1015.21
2018-08-05T01:39:06.039Z,1015.18
2018-08-05T01:40:06.494Z,1015.21
2018-08-05T01:42:01.309Z,1015.19
2018-08-05T01:43:01.476Z,1015.15
2018-08-05T01:44:55.706Z,1015.13
2018-08-05T01:45:55.854Z,1015.20
2018-08-05T01:47:49.896Z,1015.14
2018-08-05T01:48:50.033Z,1015.13
2018-08-05T01:50:43.757Z,1015.12
2018-08-05T01:51:44.182Z,1015.13
2018-08-05T01:53:38.200Z,1015.03
2018-08-05T01:54:38.902Z,1015.08
2018-08-05T01:56:32.570Z,1015.04
2018-08-05T01:57:33.092Z,1015.04
2018-08-05T01:59:27.792Z,1015.06
2018-08-05T02:00:27.074Z,1015.03
2018-08-05T02:02:20.856Z,1015.03
2018-08-05T02:03:21.264Z,1015.04
2018-08-05T02:05:16.834Z,1015.03
2018-08-05T02:06:17.410Z,1015.02
2018-08-05T02:07:17.413Z,1015.04
2018-08-05T02:08:17.905Z,1015.07
2018-08-05T02:09:17.430Z,1015.03
2018-08-05T02:10:19.800Z,1015.03
2018-08-05T02:11:17.446Z,1015.04
2018-08-05T02:12:17.445Z,1015.06
2018-08-05T02:13:17.057Z,1015.05
2018-08-05T02:14:17.416Z,1015.01
2018-08-05T02:15:17.634Z,1014.99
2018-08-05T02:16:17.445Z,1015.08
2018-08-05T02:17:17.460Z,1015.07
2018-08-05T02:18:17.714Z,1015.10
2018-08-05T02:19:17.477Z,1015.10
2018-08-05T02:20:17.713Z,1015.17
2018-08-05T02:21:17.980Z,1015.20
2018-08-05T02:22:18.008Z,1015.17
2018-08-05T02:23:17.462Z,1015.18
2018-08-05T02:24:17.606Z,1015.16
2018-08-05T02:25:17.451Z,1015.15
2018-08-05T02:26:17.482Z,1015.15
2018-08-05T02:27:31.755Z,1015.16
2018-08-05T02:28:17.487Z,1015.17
2018-08-05T02:29:17.478Z,1015.17
2018-08-05T02:30:17.714Z,1015.15
2018-08-05T02:31:17.400Z,1015.19
2018-08-05T02:32:23.426Z,1015.21
2018-08-05T02:33:17.435Z,1015.23
2018-08-05T02:34:17.444Z,1015.25
2018-08-05T02:35:17.444Z,1015.19
2018-08-05T02:36:17.446Z,1015.22
2018-08-05T02:37:17.444Z,1015.21
2018-08-05T02:38:17.466Z,1015.24
2018-08-05T02:39:17.475Z,1015.21
2018-08-05T02:40:17.438Z,1015.18
2018-08-05T02:41:17.458Z,1015.21
2018-08-05T02:42:18.210Z,1015.21
2018-08-05T02:43:17.415Z,1015.20
2018-08-05T02:44:23.789Z,1015.22
2018-08-05T02:45:17.456Z,1015.21
2018-08-05T02:46:17.460Z,1015.21
2018-08-05T02:47:37.789Z,1015.25
2018-08-05T02:48:17.461Z,1015.21
2018-08-05T02:49:17.648Z,1015.23
2018-08-05T02:50:17.648Z,1015.25
2018-08-05T02:51:17.224Z,1015.23
2018-08-05T02:52:17.631Z,1015.21
2018-08-05T02:53:17.469Z,1015.21
2018-08-05T02:54:17.147Z,1015.20
2018-08-05T02:55:53.736Z,1015.20
2018-08-05T02:56:17.507Z,1015.21
2018-08-05T02:57:18.983Z,1015.24
2018-08-05T02:58:17.446Z,1015.26
2018-08-05T02:59:17.441Z,1015.24
2018-08-05T03:00:17.070Z,1015.26
2018-08-05T03:01:17.454Z,1015.27
2018-08-05T03:02:19.461Z,1015.23
2018-08-05T03:03:17.079Z,1015.24
2018-08-05T03:04:17.423Z,1015.21
2018-08-05T03:05:17.466Z,1015.17
2018-08-05T03:06:24.036Z,1015.25
2018-08-05T03:07:17.460Z,1015.20
2018-08-05T03:08:17.490Z,1015.23
2018-08-05T03:09:18.914Z,1015.23
2018-08-05T03:10:17.489Z,1015.22
2018-08-05T03:11:17.656Z,1015.27
2018-08-05T03:12:17.047Z,1015.24
2018-08-05T03:13:17.067Z,1015.26
2018-08-05T03:14:17.644Z,1015.26
2018-08-05T03:15:17.071Z,1015.24
2018-08-05T03:16:17.480Z,1015.28
2018-08-05T03:17:17.533Z,1015.28
2018-08-05T03:18:17.185Z,1015.26
2018-08-05T03:19:17.577Z,1015.27
2018-08-05T03:20:17.520Z,1015.25
2018-08-05T03:22:17.642Z,1015.23
2018-08-05T03:23:19.223Z,1015.20
2018-08-05T03:24:17.057Z,1015.18
2018-08-05T03:25:17.418Z,1015.19
2018-08-05T03:26:17.442Z,1015.18
2018-08-05T03:27:17.132Z,1015.24
2018-08-05T03:28:17.486Z,1015.26
2018-08-05T03:29:17.491Z,1015.22
2018-08-05T03:30:17.472Z,1015.26
2018-08-05T03:31:17.474Z,1015.26
2018-08-05T03:32:17.149Z,1015.24
2018-08-05T03:33:17.668Z,1015.27
2018-08-05T03:34:17.096Z,1015.30
2018-08-05T03:35:17.639Z,1015.29
2018-08-05T03:36:17.496Z,1015.31
2018-08-05T03:37:17.498Z,1015.30
2018-08-05T03:38:17.480Z,1015.36
2018-08-05T03:39:17.496Z,1015.33
2018-08-05T03:40:17.504Z,1015.37
2018-08-05T03:41:17.669Z,1015.38
2018-08-05T03:42:17.539Z,1015.38
2018-08-05T03:43:19.323Z,1015.38
2018-08-05T03:44:17.669Z,1015.41
2018-08-05T03:45:17.645Z,1015.40
2018-08-05T03:46:17.484Z,1015.42
2018-08-05T03:47:17.650Z,1015.37
2018-08-05T03:48:17.211Z,1015.43
2018-08-05T03:49:17.426Z,1015.42
2018-08-05T03:50:17.544Z,1015.41
2018-08-05T03:51:17.747Z,1015.44
2018-08-05T03:52:17.651Z,1015.49
2018-08-05T03:53:17.480Z,1015.47
2018-08-05T03:54:17.486Z,1015.51
2018-08-05T03:55:17.491Z,1015.48
2018-08-05T03:56:17.462Z,1015.53
2018-08-05T03:57:17.539Z,1015.53
2018-08-05T03:58:17.480Z,1015.53
2018-08-05T03:59:17.483Z,1015.57
2018-08-05T04:00:17.541Z,1015.55
2018-08-05T04:01:17.670Z,1015.55
2018-08-05T04:02:17.726Z,1015.63
2018-08-05T04:03:17.190Z,1015.59
2018-08-05T04:04:17.648Z,1015.64
2018-08-05T04:05:17.176Z,1015.61
2018-08-05T04:06:17.540Z,1015.63
2018-08-05T04:07:17.539Z,1015.62
2018-08-05T04:08:17.511Z,1015.62
2018-08-05T04:09:17.529Z,1015.62
2018-08-05T04:10:17.580Z,1015.63
2018-08-05T04:11:17.757Z,1015.59
2018-08-05T04:12:17.620Z,1015.59
2018-08-05T04:13:17.623Z,1015.59
2018-08-05T04:14:17.555Z,1015.60
2018-08-05T04:15:17.611Z,1015.62
2018-08-05T04:16:17.558Z,1015.59
2018-08-05T04:17:17.486Z,1015.64
2018-08-05T04:18:17.516Z,1015.58
2018-08-05T04:19:17.524Z,1015.61
2018-08-05T04:20:17.499Z,1015.60
2018-08-05T04:21:17.485Z,1015.60
2018-08-05T04:22:17.746Z,1015.63
2018-08-05T04:23:17.518Z,1015.62
2018-08-05T04:24:17.489Z,1015.65
2018-08-05T04:25:17.535Z,1015.62
2018-08-05T04:26:17.561Z,1015.64
2018-08-05T04:27:17.515Z,1015.66
2018-08-05T04:28:18.019Z,1015.67
2018-08-05T04:29:17.408Z,1015.66
2018-08-05T04:30:17.432Z,1015.66
2018-08-05T04:31:17.681Z,1015.64
2018-08-05T04:32:17.709Z,1015.63
2018-08-05T04:33:17.421Z,1015.66
2018-08-05T04:34:17.656Z,1015.63
2018-08-05T04:35:17.425Z,1015.66
2018-08-05T04:36:17.663Z,1015.68
2018-08-05T04:37:17.705Z,1015.72
2018-08-05T04:38:17.677Z,1015.74
2018-08-05T04:39:17.739Z,1015.73
2018-08-05T04:40:17.547Z,1015.74
2018-08-05T04:41:17.552Z,1015.77
2018-08-05T04:42:17.550Z,1015.77
2018-08-05T04:43:17.566Z,1015.76
2018-08-05T04:44:17.568Z,1015.74
2018-08-05T04:45:17.668Z,1015.77
2018-08-05T04:46:17.549Z,1015.79
2018-08-05T04:47:17.273Z,1015.75
2018-08-05T04:48:17.778Z,1015.78
2018-08-05T04:49:17.169Z,1015.85
2018-08-05T04:50:17.104Z,1015.85
2018-08-05T04:51:17.488Z,1015.90
2018-08-05T04:52:17.144Z,1015.91
2018-08-05T04:53:17.491Z,1015.92
2018-08-05T04:54:17.519Z,1015.92
2018-08-05T04:55:17.144Z,1015.93
2018-08-05T04:56:17.553Z,1015.91
2018-08-05T04:57:17.508Z,1015.91
2018-08-05T04:58:17.499Z,1015.94
2018-08-05T04:59:17.518Z,1015.91
2018-08-05T05:00:17.996Z,1015.93
2018-08-05T05:01:17.158Z,1015.98
2018-08-05T05:02:17.551Z,1015.95
2018-08-05T05:03:17.677Z,1015.96
2018-08-05T05:04:17.545Z,1016.01
2018-08-05T05:05:17.544Z,1016.05
2018-08-05T05:06:17.510Z,1016.04
2018-08-05T05:07:17.135Z,1016.05
2018-08-05T05:08:17.501Z,1015.99
2018-08-05T05:09:17.485Z,1015.99
2018-08-05T05:10:17.183Z,1015.97
2018-08-05T05:11:17.492Z,1015.99
2018-08-05T05:12:17.163Z,1016.00
2018-08-05T05:13:17.121Z,1016.00
2018-08-05T05:14:17.487Z,1016.02
2018-08-05T05:15:17.534Z,1016.04
2018-08-05T05:16:17.254Z,1016.04
2018-08-05T05:17:17.579Z,1016.10
2018-08-05T05:18:17.521Z,1016.08
2018-08-05T05:19:17.159Z,1016.12
2018-08-05T05:20:17.540Z,1016.09
2018-08-05T05:21:17.619Z,1016.11
2018-08-05T05:22:17.425Z,1016.12
2018-08-05T05:23:17.786Z,1016.15
2018-08-05T05:24:17.551Z,1016.11
2018-08-05T05:25:17.271Z,1016.11
2018-08-05T05:26:17.612Z,1016.10
2018-08-05T05:27:17.687Z,1016.09
2018-08-05T05:29:18.256Z,1016.14
2018-08-05T05:30:17.676Z,1016.08
2018-08-05T05:31:17.127Z,1016.12
2018-08-05T05:32:17.402Z,1016.15
2018-08-05T05:33:17.731Z,1016.15
2018-08-05T05:34:17.177Z,1016.18
2018-08-05T05:35:17.741Z,1016.18
2018-08-05T05:36:17.205Z,1016.23
2018-08-05T05:37:17.580Z,1016.24
2018-08-05T05:38:17.560Z,1016.21
2018-08-05T05:39:18.042Z,1016.19
2018-08-05T05:40:17.491Z,1016.20
2018-08-05T05:41:17.694Z,1016.22
2018-08-05T05:42:17.543Z,1016.23
2018-08-05T05:43:17.223Z,1016.24
2018-08-05T05:44:17.820Z,1016.23
2018-08-05T05:45:17.330Z,1016.25
2018-08-05T05:46:17.724Z,1016.28
2018-08-05T05:47:17.580Z,1016.27
2018-08-05T05:48:17.260Z,1016.28
2018-08-05T05:49:17.744Z,1016.34
2018-08-05T05:50:17.556Z,1016.29
2018-08-05T05:51:17.565Z,1016.29
2018-08-05T05:52:17.249Z,1016.33
2018-08-05T05:53:23.740Z,1016.27
2018-08-05T05:54:17.782Z,1016.34
2018-08-05T05:55:17.200Z,1016.35
2018-08-05T05:56:17.685Z,1016.35
2018-08-05T05:57:31.763Z,1016.34
2018-08-05T05:58:17.199Z,1016.36
2018-08-05T05:59:17.700Z,1016.29
2018-08-05T06:00:17.739Z,1016.33
2018-08-05T06:01:17.206Z,1016.36
2018-08-05T06:02:44.689Z,1016.34
2018-08-05T06:03:17.687Z,1016.35
2018-08-05T06:04:23.475Z,1016.40
2018-08-05T06:05:17.725Z,1016.39
2018-08-05T06:06:17.739Z,1016.40
2018-08-05T06:07:17.214Z,1016.45
2018-08-05T06:08:17.706Z,1016.45
2018-08-05T06:09:17.547Z,1016.52
2018-08-05T06:10:17.192Z,1016.50
2018-08-05T06:11:17.207Z,1016.50
2018-08-05T06:12:17.550Z,1016.44
2018-08-05T06:13:17.201Z,1016.44
2018-08-05T06:14:17.549Z,1016.44
2018-08-05T06:15:17.735Z,1016.50
2018-08-05T06:16:17.204Z,1016.52
2018-08-05T06:17:17.548Z,1016.49
2018-08-05T06:18:17.695Z,1016.55
2018-08-05T06:19:17.195Z,1016.52
2018-08-05T06:20:17.706Z,1016.49
2018-08-05T06:21:38.214Z,1016.51
2018-08-05T06:22:17.714Z,1016.50
2018-08-05T06:23:17.695Z,1016.49
2018-08-05T06:24:17.705Z,1016.53
2018-08-05T06:25:17.195Z,1016.55
2018-08-05T06:26:17.708Z,1016.55
2018-08-05T06:27:17.711Z,1016.56
2018-08-05T06:28:17.197Z,1016.57
2018-08-05T06:29:17.717Z,1016.61
2018-08-05T06:30:17.466Z,1016.56
2018-08-05T06:31:17.201Z,1016.61
2018-08-05T06:32:17.712Z,1016.57
2018-08-05T06:33:17.792Z,1016.60
2018-08-05T06:34:17.209Z,1016.58
2018-08-05T06:35:17.787Z,1016.58
2018-08-05T06:36:17.741Z,1016.60
2018-08-05T06:37:17.522Z,1016.64
2018-08-05T06:38:17.640Z,1016.64
2018-08-05T06:39:18.071Z,1016.71
2018-08-05T06:40:17.197Z,1016.68
2018-08-05T06:41:18.074Z,1016.72
2018-08-05T06:42:17.549Z,1016.74
2018-08-05T06:43:17.203Z,1016.67
2018-08-05T06:44:17.816Z,1016.71
2018-08-05T06:45:17.921Z,1016.76
2018-08-05T06:46:17.203Z,1016.73
2018-08-05T06:47:17.720Z,1016.74
2018-08-05T06:48:17.815Z,1016.77
2018-08-05T06:49:17.229Z,1016.76
2018-08-05T06:50:18.203Z,1016.81
2018-08-05T06:51:17.619Z,1016.72
2018-08-05T06:52:17.319Z,1016.72
2018-08-05T06:53:17.722Z,1016.71
2018-08-05T06:54:18.099Z,1016.65
2018-08-05T06:55:17.224Z,1016.69
2018-08-05T06:56:17.724Z,1016.70
2018-08-05T06:57:17.722Z,1016.68
2018-08-05T06:58:17.217Z,1016.72
2018-08-05T06:59:17.768Z,1016.67
2018-08-05T07:00:17.562Z,1016.65
2018-08-05T07:01:17.265Z,1016.66
2018-08-05T07:02:17.532Z,1016.65
2018-08-05T07:03:18.167Z,1016.69
2018-08-05T07:04:17.265Z,1016.64
2018-08-05T07:05:19.725Z,1016.65
2018-08-05T07:06:17.714Z,1016.65
2018-08-05T07:07:17.250Z,1016.71
2018-08-05T07:08:17.259Z,1016.69
2018-08-05T07:09:17.809Z,1016.70
2018-08-05T07:10:17.269Z,1016.70
2018-08-05T07:11:17.729Z,1016.66
2018-08-05T07:12:17.648Z,1016.66
2018-08-05T07:13:17.243Z,1016.68
2018-08-05T07:14:17.826Z,1016.71
2018-08-05T07:15:17.725Z,1016.71
2018-08-05T07:16:17.329Z,1016.69
2018-08-05T07:17:17.716Z,1016.68
2018-08-05T07:18:17.739Z,1016.69
2018-08-05T07:19:17.327Z,1016.69
2018-08-05T07:20:17.737Z,1016.72
2018-08-05T07:21:17.733Z,1016.69
2018-08-05T07:22:17.707Z,1016.70
2018-08-05T07:23:17.730Z,1016.77
2018-08-05T07:24:17.860Z,1016.75
2018-08-05T07:25:17.282Z,1016.77
2018-08-05T07:26:18.159Z,1016.76
2018-08-05T07:27:17.901Z,1016.80
2018-08-05T07:28:17.791Z,1016.81
2018-08-05T07:29:18.089Z,1016.83
2018-08-05T07:30:17.304Z,1016.80
2018-08-05T07:31:17.242Z,1016.80
2018-08-05T07:32:17.273Z,1016.85
2018-08-05T07:33:17.736Z,1016.83
2018-08-05T07:34:17.301Z,1016.77
2018-08-05T07:35:37.965Z,1016.78
2018-08-05T07:36:37.970Z,1016.79
2018-08-05T07:37:17.249Z,1016.77
2018-08-05T07:38:17.782Z,1016.74
2018-08-05T07:39:17.524Z,1016.74
2018-08-05T07:40:17.255Z,1016.76
2018-08-05T07:41:17.650Z,1016.75
2018-08-05T07:42:17.342Z,1016.79
2018-08-05T07:43:17.342Z,1016.75
2018-08-05T07:44:17.637Z,1016.74
2018-08-05T07:45:17.305Z,1016.72
2018-08-05T07:46:17.643Z,1016.69
2018-08-05T07:47:17.786Z,1016.73
2018-08-05T07:48:17.792Z,1016.78
2018-08-05T07:49:17.452Z,1016.78
2018-08-05T07:50:17.737Z,1016.78
2018-08-05T07:51:17.793Z,1016.78
2018-08-05T07:52:17.388Z,1016.78
2018-08-05T07:53:17.853Z,1016.79
2018-08-05T07:55:17.457Z,1016.74
2018-08-05T07:56:17.867Z,1016.75
2018-08-05T07:57:17.256Z,1016.78
2018-08-05T07:58:17.334Z,1016.79
2018-08-05T07:59:17.859Z,1016.78
2018-08-05T08:00:17.409Z,1016.76
2018-08-05T08:01:18.108Z,1016.79
2018-08-05T08:02:18.161Z,1016.78
2018-08-05T08:03:19.452Z,1016.76
2018-08-05T08:04:17.744Z,1016.78
2018-08-05T08:05:18.099Z,1016.79
2018-08-05T08:06:17.736Z,1016.78
2018-08-05T08:07:17.736Z,1016.81
2018-08-05T08:08:18.098Z,1016.77
2018-08-05T08:09:17.375Z,1016.76
2018-08-05T08:10:17.695Z,1016.76
2018-08-05T08:11:17.750Z,1016.73
2018-08-05T08:12:17.356Z,1016.76
2018-08-05T08:13:17.653Z,1016.72
2018-08-05T08:14:17.761Z,1016.72
2018-08-05T08:15:17.378Z,1016.76
2018-08-05T08:16:17.755Z,1016.79
2018-08-05T08:17:17.674Z,1016.78
2018-08-05T08:18:17.378Z,1016.76
2018-08-05T08:19:17.997Z,1016.77
2018-08-05T08:20:17.741Z,1016.77
2018-08-05T08:21:17.417Z,1016.73
2018-08-05T08:22:18.197Z,1016.73
2018-08-05T08:23:18.031Z,1016.77
2018-08-05T08:24:17.758Z,1016.79
2018-08-05T08:25:18.208Z,1016.81
2018-08-05T08:26:17.844Z,1016.83
2018-08-05T08:27:17.803Z,1016.80
2018-08-05T08:28:17.812Z,1016.84
2018-08-05T08:29:17.768Z,1016.85
2018-08-05T08:30:17.806Z,1016.83
2018-08-05T08:31:18.038Z,1016.80
2018-08-05T08:32:18.119Z,1016.72
2018-08-05T08:33:17.421Z,1016.79
2018-08-05T08:34:17.797Z,1016.76
2018-08-05T08:35:17.819Z,1016.81
2018-08-05T08:36:17.825Z,1016.84
2018-08-05T08:37:17.783Z,1016.88
2018-08-05T08:38:18.079Z,1016.88
2018-08-05T08:39:17.344Z,1016.85
2018-08-05T08:40:17.404Z,1016.85
2018-08-05T08:41:17.700Z,1016.88
2018-08-05T08:42:19.130Z,1016.88
2018-08-05T08:43:17.795Z,1016.85
2018-08-05T08:44:18.191Z,1016.82
2018-08-05T08:45:17.780Z,1016.83
2018-08-05T08:46:17.817Z,1016.83
2018-08-05T08:47:17.823Z,1016.76
2018-08-05T08:48:17.846Z,1016.77
2018-08-05T08:49:17.874Z,1016.78
2018-08-05T08:50:18.022Z,1016.78
2018-08-05T08:51:17.654Z,1016.79
2018-08-05T08:52:18.263Z,1016.75
2018-08-05T08:53:17.721Z,1016.69
2018-08-05T08:54:17.823Z,1016.67
2018-08-05T08:55:18.276Z,1016.69
2018-08-05T08:56:19.656Z,1016.66
2018-08-05T08:57:17.535Z,1016.70
2018-08-05T08:58:17.903Z,1016.69
2018-08-05T08:59:17.998Z,1016.70
2018-08-05T09:00:17.587Z,1016.76
2018-08-05T09:01:17.849Z,1016.78
2018-08-05T09:02:17.901Z,1016.78
2018-08-05T09:03:17.850Z,1016.77
2018-08-05T09:04:17.822Z,1016.78
2018-08-05T09:05:18.149Z,1016.78
2018-08-05T09:06:19.292Z,1016.79
2018-08-05T09:07:17.886Z,1016.83
2018-08-05T09:08:17.838Z,1016.77
2018-08-05T09:09:17.489Z,1016.82
2018-08-05T09:10:18.075Z,1016.81
2018-08-05T09:11:17.825Z,1016.80
2018-08-05T09:12:17.843Z,1016.74
2018-08-05T09:13:18.778Z,1016.76
2018-08-05T09:14:18.226Z,1016.72
2018-08-05T09:15:17.437Z,1016.79
2018-08-05T09:16:19.799Z,1016.78
2018-08-05T09:17:17.776Z,1016.76
2018-08-05T09:18:17.895Z,1016.77
2018-08-05T09:19:19.827Z,1016.78
2018-08-05T09:20:18.342Z,1016.78
2018-08-05T09:21:18.117Z,1016.72
2018-08-05T09:22:19.658Z,1016.75
2018-08-05T09:23:18.027Z,1016.73
2018-08-05T09:24:18.346Z,1016.69
2018-08-05T09:25:18.635Z,1016.70
2018-08-05T09:26:17.829Z,1016.75
2018-08-05T09:27:18.794Z,1016.72
2018-08-05T09:28:20.383Z,1016.77
2018-08-05T09:29:17.484Z,1016.78
2018-08-05T09:30:18.280Z,1016.73
2018-08-05T09:31:18.151Z,1016.73
2018-08-05T09:32:18.314Z,1016.67
2018-08-05T09:33:18.376Z,1016.69
2018-08-05T09:34:18.334Z,1016.72
2018-08-05T09:35:18.336Z,1016.69
2018-08-05T09:36:18.738Z,1016.71
2018-08-05T09:37:17.413Z,1016.68
2018-08-05T09:38:18.339Z,1016.76
2018-08-05T09:39:18.383Z,1016.78
2018-08-05T09:40:18.666Z,1016.80
2018-08-05T09:41:18.623Z,1016.83
2018-08-05T09:42:18.109Z,1016.83
2018-08-05T09:43:18.434Z,1016.79
2018-08-05T09:44:18.407Z,1016.88
2018-08-05T09:45:18.333Z,1016.78
2018-08-05T09:46:18.309Z,1016.77
2018-08-05T09:47:18.523Z,1016.75
2018-08-05T09:48:18.164Z,1016.75
2018-08-05T09:49:18.248Z,1016.70
2018-08-05T09:50:19.955Z,1016.72
2018-08-05T09:51:18.317Z,1016.70
2018-08-05T09:52:18.117Z,1016.72
2018-08-05T09:53:18.642Z,1016.68
2018-08-05T09:54:18.656Z,1016.77
2018-08-05T09:55:18.341Z,1016.73
2018-08-05T09:56:18.363Z,1016.72
2018-08-05T09:57:20.343Z,1016.75
2018-08-05T09:58:18.195Z,1016.81
2018-08-05T09:59:18.661Z,1016.78
2018-08-05T10:00:18.657Z,1016.83
2018-08-05T10:01:18.172Z,1016.78
2018-08-05T10:02:18.668Z,1016.77
2018-08-05T10:03:18.358Z,1016.76
2018-08-05T10:04:18.303Z,1016.71
2018-08-05T10:05:18.661Z,1016.77
2018-08-05T10:06:19.841Z,1016.78
2018-08-05T10:07:18.366Z,1016.76
2018-08-05T10:08:17.870Z,1016.75
2018-08-05T10:09:18.353Z,1016.72
2018-08-05T10:10:18.090Z,1016.72
2018-08-05T10:11:17.503Z,1016.74
2018-08-05T10:12:18.348Z,1016.70
2018-08-05T10:13:17.596Z,1016.73
2018-08-05T10:14:18.136Z,1016.65
2018-08-05T10:15:18.184Z,1016.68
2018-08-05T10:16:18.299Z,1016.73
2018-08-05T10:17:17.877Z,1016.67
2018-08-05T10:18:18.301Z,1016.61
2018-08-05T10:19:18.676Z,1016.62
2018-08-05T10:20:18.365Z,1016.62
2018-08-05T10:21:18.305Z,1016.59
2018-08-05T10:22:18.293Z,1016.62
2018-08-05T10:23:18.353Z,1016.62
2018-08-05T10:24:18.198Z,1016.58
2018-08-05T10:25:18.616Z,1016.60
2018-08-05T10:26:18.353Z,1016.53
2018-08-05T10:27:18.357Z,1016.60
2018-08-05T10:28:20.480Z,1016.64
2018-08-05T10:29:18.404Z,1016.67
2018-08-05T10:30:18.409Z,1016.64
2018-08-05T10:31:18.357Z,1016.63
2018-08-05T10:32:18.695Z,1016.65
2018-08-05T10:33:18.464Z,1016.67
2018-08-05T10:34:18.335Z,1016.66
2018-08-05T10:35:18.365Z,1016.67
2018-08-05T10:36:18.756Z,1016.69
2018-08-05T10:37:18.361Z,1016.65
2018-08-05T10:38:18.316Z,1016.63
2018-08-05T10:39:18.669Z,1016.64
2018-08-05T10:40:18.811Z,1016.66
2018-08-05T10:41:18.100Z,1016.64
2018-08-05T10:42:18.188Z,1016.66
2018-08-05T10:43:18.674Z,1016.69
2018-08-05T10:44:18.325Z,1016.62
2018-08-05T10:45:18.393Z,1016.62
2018-08-05T10:46:18.419Z,1016.59
2018-08-05T10:47:18.315Z,1016.57
2018-08-05T10:48:18.424Z,1016.61
2018-08-05T10:49:18.655Z,1016.59
2018-08-05T10:50:18.815Z,1016.58
2018-08-05T10:51:18.678Z,1016.63
2018-08-05T10:52:16.697Z,1016.49
2018-08-05T10:53:17.857Z,1016.44
2018-08-05T10:54:17.329Z,1016.53
2018-08-05T10:55:17.765Z,1016.46
2018-08-05T10:56:17.898Z,1016.43
2018-08-05T10:57:17.333Z,1016.40
2018-08-05T10:58:17.905Z,1016.48
2018-08-05T10:59:17.298Z,1016.50
2018-08-05T11:00:17.477Z,1016.56
2018-08-05T11:01:17.809Z,1016.56
2018-08-05T11:02:17.624Z,1016.58
2018-08-05T11:03:17.666Z,1016.60
2018-08-05T11:04:16.619Z,1016.64
2018-08-05T11:05:16.679Z,1016.64
2018-08-05T11:06:16.623Z,1016.54
2018-08-05T11:07:17.583Z,1016.56
2018-08-05T11:08:16.734Z,1016.53
2018-08-05T11:09:16.647Z,1016.54
2018-08-05T11:10:16.629Z,1016.51
2018-08-05T11:11:16.759Z,1016.59
2018-08-05T11:12:16.713Z,1016.50
2018-08-05T11:13:16.664Z,1016.49
2018-08-05T11:14:16.705Z,1016.52
2018-08-05T11:15:17.782Z,1016.51
2018-08-05T11:16:17.321Z,1016.48
2018-08-05T11:17:17.751Z,1016.53
2018-08-05T11:18:17.655Z,1016.52
2018-08-05T11:19:17.844Z,1016.42
2018-08-05T11:20:17.849Z,1016.45
2018-08-05T11:21:17.979Z,1016.45
2018-08-05T11:22:16.699Z,1016.46
2018-08-05T11:23:17.645Z,1016.52
2018-08-05T11:24:17.762Z,1016.44
2018-08-05T11:25:17.704Z,1016.41
2018-08-05T11:26:17.687Z,1016.38
2018-08-05T11:27:17.430Z,1016.36
2018-08-05T11:28:17.601Z,1016.39
2018-08-05T11:29:17.546Z,1016.37
2018-08-05T11:30:46.043Z,1016.31
2018-08-05T11:31:17.892Z,1016.42
2018-08-05T11:32:17.854Z,1016.38
2018-08-05T11:33:17.765Z,1016.30
2018-08-05T11:34:17.512Z,1016.31
2018-08-05T11:35:17.507Z,1016.29
2018-08-05T11:36:17.843Z,1016.31
2018-08-05T11:37:17.895Z,1016.34
2018-08-05T11:38:17.398Z,1016.34
2018-08-05T11:39:17.387Z,1016.33
2018-08-05T11:40:17.434Z,1016.34
2018-08-05T11:41:17.387Z,1016.33
2018-08-05T11:42:17.885Z,1016.31
2018-08-05T11:43:17.914Z,1016.35
2018-08-05T11:44:17.897Z,1016.33
2018-08-05T11:45:17.995Z,1016.31
2018-08-05T11:46:16.748Z,1016.37
2018-08-05T11:47:17.978Z,1016.34
2018-08-05T11:48:17.492Z,1016.33
2018-08-05T11:49:17.521Z,1016.29
2018-08-05T11:50:17.551Z,1016.29
2018-08-05T11:51:17.528Z,1016.26
2018-08-05T11:52:17.903Z,1016.32
2018-08-05T11:53:18.862Z,1016.33
2018-08-05T11:54:17.481Z,1016.29
2018-08-05T11:55:17.884Z,1016.31
2018-08-05T11:56:17.902Z,1016.28
2018-08-05T11:57:17.921Z,1016.36
2018-08-05T11:58:17.859Z,1016.32
2018-08-05T11:59:17.903Z,1016.32
2018-08-05T12:00:17.900Z,1016.38
2018-08-05T12:01:17.919Z,1016.37
2018-08-05T12:02:17.909Z,1016.29
2018-08-05T12:03:19.733Z,1016.32
2018-08-05T12:04:16.840Z,1016.39
2018-08-05T12:05:17.928Z,1016.37
2018-08-05T12:06:17.903Z,1016.37
2018-08-05T12:07:17.545Z,1016.34
2018-08-05T12:08:17.920Z,1016.35
2018-08-05T12:09:17.613Z,1016.40
2018-08-05T12:10:17.611Z,1016.41
2018-08-05T12:11:17.614Z,1016.38
2018-08-05T12:12:17.610Z,1016.40
2018-08-05T12:13:17.534Z,1016.36
2018-08-05T12:14:17.644Z,1016.39
2018-08-05T12:15:17.969Z,1016.40
2018-08-05T12:16:16.961Z,1016.38
2018-08-05T12:17:17.627Z,1016.39
2018-08-05T12:18:18.201Z,1016.43
2018-08-05T12:19:16.900Z,1016.52
2018-08-05T12:20:17.711Z,1016.58
2018-08-05T12:21:17.911Z,1016.65
2018-08-05T12:22:17.634Z,1016.70
2018-08-05T12:23:17.937Z,1016.76